Terminal Aerodrome Forecast
Issued by NWS

Home | Current Version | Previous Version | Text Only | Print | Product List | Glossary On
Versions: 1 2 3 4 5 6 7 8 9 10 11 12 13 14 15 16 17 18 19 20 21 22 23 24 25 26 27 28 29 30
000
FTUS42 KJAX 181134
TAFVQQ
TAF
KVQQ 181134Z 1812/1912 00000KT 3SM BR BKN001
      TEMPO 1812/1813 1SM BR OVC001
     FM181400 24005KT P6SM SCT005 BKN015 BKN120
      TEMPO 1814/1816 BKN005 OVC015
     FM181600 24008KT P6SM SCT025 BKN040
     FM182000 24008KT P6SM VCSH SCT030 BKN050
     FM190600 00000KT 5SM BR BKN050 OVC100=

USA.gov is the U.S. government's official web portal to all federal, state and local government web resources and services.